Startpagina
METAR-TAF:

METAR-TAF

Vliegvelden :

Vliegbasis Leeuwarden

Leeuwarden, Nederland

breedte: 53-13N, lengte: 005-46E, hoogte: 1 m

Actueel weer

Dit bericht is 17 minuten geleden gemaakt, om 05:55 UTC
Wind 8 kt uit het noordwesten, variërend tussen het westen en het noordnoordwesten
Temperatuur 3°C
Vochtigheid 70%
Druk 1027 hPa
Zicht 10 km of meer
Geheel bewolkt op 3300 ft

METAR: EHLW 070555Z AUTO 31008KT 270V330 9999 OVC033 03/M02 Q1027 BLU

Tijdstip: 07:12 (06:12 UTC)

Verwachting

Dit bericht is 49 minuten geleden gemaakt, om 05:23 UTC
Verwachting geldig van 07 om 06 UTC tot 07 om 18 UTC
Wind 5 kt uit het westen
Zicht 10 km of meer
Weinig wolken op 2500 ft
Gebroken wolken op 3500 ft
Wijzigt naar
van 07 om 09 UTC tot 07 om 11 UTC
Wind 11 kt uit het westen

TAF: EHLW 070523Z 0706/0718 27005KT 9999 FEW025 BKN035 BECMG 0709/0711 28011KT

Waarnemingen en weersverwachtingen van meer dan 4000 vliegvelden (METAR en TAF).

De beschikbare stations zijn de gele en rode punten op de kaart.

Ga met uw muis naar het station om de naam te zien.

Klik dan om waarnemingen en weersverwachtingen te zien.

kaart wijzigen: klik op de groene knoppen met een zwart kruis om in te zoomen, op de groene knop met een streepje om uit te zoomen of op de groene pijlen voor aangrenzende kaarten.


METAR-TAF: